Time;durP1;ratioP1;P1;durP2;ratioP2;P2;SDS_P1;SDS_P2;PMS_P1;PMS_P2;Temp;Humidity;BMP_temperature;BMP_pressure;BME280_temperature;BME280_humidity;BME280_pressure;Samples;Min_cycle;Max_cycle;Signal;HPM_P1;HPM_P2
2021/12/30 00:01:39;;;;;;;18.58;12.05;;;13.00;99.90;;;;;;5012853;28;20076;-65
2021/12/30 00:04:06;;;;;;;26.20;13.20;;;13.00;99.90;;;;;;5012811;28;20034;-65
2021/12/30 00:06:38;;;;;;;24.80;13.55;;;13.00;99.90;;;;;;5012951;28;20032;-65
2021/12/30 00:09:05;;;;;;;21.27;12.07;;;13.00;99.90;;;;;;5012732;28;20033;-66
2021/12/30 00:11:30;;;;;;;22.40;12.15;;;13.00;99.90;;;;;;5012646;28;20117;-65
2021/12/30 00:13:56;;;;;;;19.33;11.80;;;13.00;99.90;;;;;;5012743;28;20442;-67
2021/12/30 00:16:22;;;;;;;21.10;12.35;;;13.00;99.90;;;;;;5016362;28;20101;-65
2021/12/30 00:18:49;;;;;;;18.92;12.13;;;12.90;99.90;;;;;;5016548;28;20068;-65
2021/12/30 00:21:15;;;;;;;20.83;12.77;;;12.90;99.90;;;;;;5016732;28;20472;-68
2021/12/30 00:23:42;;;;;;;21.48;12.10;;;12.90;99.90;;;;;;5016471;28;20021;-67
2021/12/30 00:26:08;;;;;;;20.48;11.65;;;12.90;99.90;;;;;;5016495;28;20018;-64
2021/12/30 00:28:35;;;;;;;21.70;12.20;;;12.90;99.90;;;;;;5016306;28;20034;-66
2021/12/30 00:31:00;;;;;;;21.02;12.85;;;12.90;99.90;;;;;;5016578;28;20018;-65
2021/12/30 00:33:27;;;;;;;23.65;14.05;;;12.90;99.90;;;;;;5016403;28;20372;-65
2021/12/30 00:35:54;;;;;;;24.08;13.93;;;12.90;99.90;;;;;;5016515;28;20482;-65
2021/12/30 00:38:20;;;;;;;24.42;13.65;;;12.80;99.90;;;;;;5016105;28;20033;-65
2021/12/30 00:40:46;;;;;;;23.52;13.38;;;12.80;99.90;;;;;;5016215;28;20493;-65
2021/12/30 00:43:12;;;;;;;21.40;13.38;;;12.70;99.90;;;;;;5016267;28;20026;-67
2021/12/30 00:45:38;;;;;;;23.80;12.93;;;12.70;99.90;;;;;;5016432;28;20022;-67
2021/12/30 00:48:05;;;;;;;24.30;13.75;;;12.60;99.90;;;;;;5015879;28;20030;-64
2021/12/30 00:50:31;;;;;;;19.80;13.30;;;12.70;99.90;;;;;;5016391;28;20030;-67
2021/12/30 00:53:01;;;;;;;20.58;11.98;;;12.60;99.90;;;;;;5016087;28;20029;-66
2021/12/30 00:55:27;;;;;;;20.63;12.70;;;12.60;99.90;;;;;;5016068;28;20089;-65
2021/12/30 00:57:53;;;;;;;22.77;12.80;;;12.60;99.90;;;;;;5016099;28;20038;-66
2021/12/30 01:00:20;;;;;;;23.80;13.55;;;12.50;99.90;;;;;;5015983;28;20036;-66
2021/12/30 01:02:47;;;;;;;21.58;12.82;;;12.50;99.90;;;;;;5016652;28;20467;-65
2021/12/30 01:05:14;;;;;;;20.85;13.00;;;12.50;99.90;;;;;;5016008;28;20102;-64
2021/12/30 01:07:40;;;;;;;20.58;12.77;;;12.50;99.90;;;;;;5016133;28;20076;-65
2021/12/30 01:10:09;;;;;;;25.55;13.85;;;12.40;99.90;;;;;;5016010;28;20022;-64
2021/12/30 01:12:35;;;;;;;24.67;13.48;;;12.40;99.90;;;;;;5015802;28;20026;-66
2021/12/30 01:15:07;;;;;;;23.30;13.75;;;12.30;99.90;;;;;;5015561;28;20379;-65
2021/12/30 01:20:11;;;;;;;20.27;13.10;;;12.30;99.90;;;;;;5015397;28;20034;-64
2021/12/30 01:22:37;;;;;;;21.98;13.70;;;12.30;99.90;;;;;;5015599;28;20434;-65
2021/12/30 01:25:06;;;;;;;19.17;13.18;;;12.30;99.90;;;;;;5015217;28;20105;-65
2021/12/30 01:27:36;;;;;;;21.52;13.20;;;12.30;99.90;;;;;;5015336;28;20033;-66
2021/12/30 01:30:04;;;;;;;19.88;12.23;;;12.30;99.90;;;;;;5015254;28;20427;-65
2021/12/30 01:32:30;;;;;;;18.98;11.65;;;12.30;99.90;;;;;;5015378;28;20033;-67
2021/12/30 01:34:55;;;;;;;18.98;12.23;;;12.30;99.90;;;;;;5015187;28;20026;-67
2021/12/30 01:37:23;;;;;;;20.55;11.98;;;12.30;99.90;;;;;;5015504;28;20101;-67
2021/12/30 01:39:49;;;;;;;17.48;11.73;;;12.30;99.90;;;;;;5015138;28;20057;-65
2021/12/30 01:42:14;;;;;;;19.80;12.43;;;12.30;99.90;;;;;;5015294;28;20034;-67
2021/12/30 01:44:41;;;;;;;22.80;12.40;;;12.30;99.90;;;;;;5015197;28;20030;-67
2021/12/30 01:47:07;;;;;;;16.35;11.63;;;12.30;99.90;;;;;;5015333;28;20105;-68
2021/12/30 01:49:33;;;;;;;17.67;11.95;;;12.30;99.90;;;;;;5014695;28;20491;-70
2021/12/30 01:51:59;;;;;;;21.88;13.13;;;12.30;99.90;;;;;;5015297;28;20033;-65
2021/12/30 01:54:27;;;;;;;20.00;13.35;;;12.30;99.90;;;;;;5014797;28;20175;-69
2021/12/30 01:56:56;;;;;;;18.45;13.77;;;12.30;99.90;;;;;;5015055;28;20021;-65
2021/12/30 01:59:23;;;;;;;21.65;14.20;;;12.20;99.90;;;;;;5014815;28;20038;-67
2021/12/30 02:01:56;;;;;;;20.80;13.95;;;12.20;99.90;;;;;;5013728;28;20022;-68
2021/12/30 02:04:23;;;;;;;25.95;14.82;;;12.20;99.90;;;;;;5013679;28;20375;-67
2021/12/30 02:06:49;;;;;;;23.73;13.85;;;12.20;99.90;;;;;;5014689;28;20064;-68
2021/12/30 02:09:18;;;;;;;23.73;15.50;;;12.20;99.90;;;;;;5014952;28;20386;-65
2021/12/30 02:11:43;;;;;;;20.90;14.40;;;12.20;99.90;;;;;;5013356;28;20054;-67
2021/12/30 02:14:09;;;;;;;24.35;14.43;;;12.10;99.90;;;;;;5014771;28;20042;-65
2021/12/30 02:16:37;;;;;;;23.05;14.20;;;12.00;99.90;;;;;;5014730;28;20101;-68
2021/12/30 02:19:02;;;;;;;30.20;15.40;;;12.10;99.90;;;;;;5014359;28;20324;-67
2021/12/30 02:21:28;;;;;;;18.42;14.20;;;12.00;99.90;;;;;;5014655;28;20076;-64
2021/12/30 02:23:54;;;;;;;22.73;13.93;;;12.00;99.90;;;;;;5014341;28;20030;-66
2021/12/30 02:26:20;;;;;;;59.10;34.70;;;12.00;99.90;;;;;;5014448;28;20467;-69
2021/12/30 02:28:46;;;;;;;33.85;22.20;;;12.00;99.90;;;;;;5014151;28;20041;-66
2021/12/30 02:31:16;;;;;;;22.05;15.00;;;12.00;99.90;;;;;;5014111;28;20367;-67
2021/12/30 02:33:43;;;;;;;19.10;13.50;;;12.00;99.90;;;;;;5014345;28;20061;-64
2021/12/30 02:36:10;;;;;;;23.88;14.40;;;12.00;99.90;;;;;;5014175;28;20037;-66
2021/12/30 02:38:36;;;;;;;23.10;14.02;;;12.00;99.90;;;;;;5013283;28;20049;-66
2021/12/30 02:41:03;;;;;;;24.70;14.32;;;12.00;99.90;;;;;;5014123;28;20018;-68
2021/12/30 02:43:31;;;;;;;19.85;13.07;;;12.00;99.90;;;;;;5014089;28;20497;-65
2021/12/30 02:45:59;;;;;;;21.83;12.80;;;12.10;99.90;;;;;;5014365;28;20387;-67
2021/12/30 02:48:29;;;;;;;22.08;12.63;;;12.00;99.90;;;;;;5013823;28;20450;-65
2021/12/30 02:50:58;;;;;;;19.27;13.02;;;12.00;99.90;;;;;;5013849;28;20038;-65
2021/12/30 02:53:24;;;;;;;20.88;12.15;;;12.10;99.90;;;;;;5013728;28;20396;-66
2021/12/30 02:55:53;;;;;;;24.55;12.73;;;12.10;99.90;;;;;;5013908;28;20022;-66
2021/12/30 02:58:20;;;;;;;22.42;13.00;;;12.10;99.90;;;;;;5013812;28;20197;-66
2021/12/30 03:00:47;;;;;;;21.13;13.02;;;12.10;99.90;;;;;;5013907;28;20018;-63
2021/12/30 03:03:18;;;;;;;21.08;13.05;;;12.10;99.90;;;;;;5013573;28;20112;-65
2021/12/30 03:05:44;;;;;;;21.83;13.43;;;12.10;99.90;;;;;;5013577;28;20476;-66
2021/12/30 03:08:10;;;;;;;24.20;13.27;;;12.10;99.90;;;;;;5013202;28;20102;-66
2021/12/30 03:10:36;;;;;;;18.35;13.30;;;12.10;99.90;;;;;;5013271;28;20045;-66
2021/12/30 03:13:09;;;;;;;24.08;13.98;;;12.10;99.90;;;;;;5013124;28;20049;-67
2021/12/30 03:15:36;;;;;;;22.83;13.38;;;12.00;99.90;;;;;;5013469;28;20083;-66
2021/12/30 03:18:03;;;;;;;19.15;13.00;;;12.00;99.90;;;;;;5012862;28;20029;-66
2021/12/30 03:20:36;;;;;;;20.75;13.27;;;12.00;99.90;;;;;;5013256;28;20100;-67
2021/12/30 03:23:03;;;;;;;20.33;13.40;;;12.00;99.90;;;;;;5013264;28;20029;-65
2021/12/30 03:25:29;;;;;;;22.75;13.40;;;12.00;99.90;;;;;;5013127;28;20022;-66
2021/12/30 03:27:55;;;;;;;21.63;14.13;;;12.00;99.90;;;;;;5013251;28;20030;-66
2021/12/30 03:30:21;;;;;;;20.73;12.60;;;12.00;99.90;;;;;;5013134;28;20032;-64
2021/12/30 03:32:47;;;;;;;21.92;13.65;;;12.00;99.90;;;;;;5013202;28;20022;-65
2021/12/30 03:35:13;;;;;;;24.35;14.40;;;11.90;99.90;;;;;;5011644;28;20018;-64
2021/12/30 03:37:39;;;;;;;20.58;13.60;;;11.90;99.90;;;;;;5012848;28;20510;-65
2021/12/30 03:40:09;;;;;;;20.65;13.95;;;11.90;99.90;;;;;;5013801;28;20356;-65
2021/12/30 03:42:35;;;;;;;23.77;14.25;;;11.90;99.90;;;;;;5012777;28;20348;-64
2021/12/30 03:45:02;;;;;;;19.88;13.27;;;11.90;99.90;;;;;;5012848;28;20033;-65
2021/12/30 03:47:29;;;;;;;23.92;14.02;;;11.80;99.90;;;;;;5012937;28;20034;-64
2021/12/30 03:49:54;;;;;;;18.55;13.60;;;11.80;99.90;;;;;;5012511;28;20042;-65
2021/12/30 03:52:27;;;;;;;20.17;14.23;;;11.80;99.90;;;;;;5012869;28;20033;-66
2021/12/30 03:54:53;;;;;;;21.90;13.18;;;11.80;99.90;;;;;;5012959;28;20109;-66
2021/12/30 03:57:18;;;;;;;23.92;14.48;;;11.80;99.90;;;;;;5012624;28;20037;-65
2021/12/30 03:59:44;;;;;;;22.92;14.75;;;11.80;99.90;;;;;;5012915;28;20041;-64
2021/12/30 04:02:10;;;;;;;22.23;14.70;;;11.80;99.90;;;;;;5012700;28;20026;-68
2021/12/30 04:04:36;;;;;;;22.25;14.02;;;11.80;99.90;;;;;;5012938;28;20486;-67
2021/12/30 04:07:02;;;;;;;21.73;14.30;;;11.80;99.90;;;;;;5012726;28;20160;-65
2021/12/30 04:09:28;;;;;;;22.02;14.23;;;11.90;99.90;;;;;;5012603;28;20437;-64
2021/12/30 04:11:54;;;;;;;22.25;16.05;;;11.90;99.90;;;;;;5011388;28;20033;-65
2021/12/30 04:14:19;;;;;;;20.35;14.55;;;11.80;99.90;;;;;;5012699;28;20494;-65
2021/12/30 04:16:46;;;;;;;20.83;14.95;;;11.70;99.90;;;;;;5012735;28;20475;-66
2021/12/30 04:19:12;;;;;;;23.63;16.42;;;11.70;99.90;;;;;;5012653;28;20038;-66
2021/12/30 04:21:38;;;;;;;20.38;15.15;;;11.60;99.90;;;;;;5012835;28;20024;-66
2021/12/30 04:24:04;;;;;;;23.60;15.50;;;11.50;99.90;;;;;;5012775;28;20464;-65
2021/12/30 04:26:30;;;;;;;22.20;14.70;;;11.50;99.90;;;;;;5012795;28;20029;-64
2021/12/30 04:28:56;;;;;;;20.73;14.57;;;11.40;99.90;;;;;;5012545;28;20022;-65
2021/12/30 04:31:23;;;;;;;19.50;14.55;;;11.40;99.90;;;;;;5012709;28;20060;-64
2021/12/30 04:33:48;;;;;;;24.17;15.23;;;11.40;99.90;;;;;;5012978;28;20431;-64
2021/12/30 04:36:14;;;;;;;24.35;14.60;;;11.40;99.90;;;;;;5011247;28;20104;-64
2021/12/30 04:38:40;;;;;;;20.17;13.27;;;11.40;99.90;;;;;;5012632;28;20041;-65
2021/12/30 04:41:06;;;;;;;20.58;13.63;;;11.40;99.90;;;;;;5011258;28;20022;-64
2021/12/30 04:43:32;;;;;;;19.08;13.45;;;11.30;99.90;;;;;;5011336;28;20030;-65
2021/12/30 04:46:01;;;;;;;17.92;12.93;;;11.30;99.90;;;;;;5012565;28;20160;-63
2021/12/30 04:48:26;;;;;;;17.55;12.15;;;11.20;99.90;;;;;;5010976;28;20041;-64
2021/12/30 04:50:53;;;;;;;19.00;11.75;;;11.20;99.90;;;;;;5012363;28;20022;-64
2021/12/30 04:53:19;;;;;;;18.05;11.98;;;11.10;99.90;;;;;;5012392;28;20026;-67
2021/12/30 04:55:45;;;;;;;18.20;12.30;;;11.10;99.90;;;;;;5012400;28;20022;-66
2021/12/30 04:58:12;;;;;;;16.92;11.27;;;11.10;99.90;;;;;;5012063;28;20030;-65
2021/12/30 05:00:38;;;;;;;19.75;11.60;;;11.10;99.90;;;;;;5012728;28;20471;-67
2021/12/30 05:03:11;;;;;;;19.70;12.07;;;11.10;99.90;;;;;;5014362;28;20022;-66
2021/12/30 05:05:43;;;;;;;17.23;11.40;;;11.00;99.90;;;;;;5015453;28;20081;-67
2021/12/30 05:08:10;;;;;;;15.90;11.02;;;11.00;99.90;;;;;;5015311;28;20105;-65
2021/12/30 05:10:36;;;;;;;18.10;12.30;;;11.00;99.90;;;;;;5015691;28;20037;-66
2021/12/30 05:13:04;;;;;;;17.63;10.80;;;11.00;99.90;;;;;;5015678;28;20431;-66
2021/12/30 05:15:29;;;;;;;18.80;10.88;;;11.00;99.90;;;;;;5014288;28;20034;-66
2021/12/30 05:17:55;;;;;;;18.55;9.93;;;11.00;99.90;;;;;;5013891;28;20084;-64
2021/12/30 05:20:21;;;;;;;14.93;10.00;;;11.00;99.90;;;;;;5015199;28;20026;-65
2021/12/30 05:22:48;;;;;;;16.10;9.80;;;11.00;99.90;;;;;;5015668;28;20033;-66
2021/12/30 05:25:15;;;;;;;15.98;9.40;;;11.00;99.90;;;;;;5015589;28;20034;-66
2021/12/30 05:27:41;;;;;;;16.55;9.20;;;11.00;99.90;;;;;;5015287;28;20042;-65
2021/12/30 05:30:10;;;;;;;16.40;10.20;;;11.00;99.90;;;;;;5015109;28;20026;-65
2021/12/30 05:32:36;;;;;;;16.20;9.57;;;10.90;99.90;;;;;;5014952;28;20141;-66
2021/12/30 05:35:03;;;;;;;16.25;9.43;;;10.90;99.90;;;;;;5015420;28;20105;-69
2021/12/30 05:37:29;;;;;;;12.98;8.85;;;10.90;99.90;;;;;;5013632;28;20018;-64
2021/12/30 05:39:55;;;;;;;12.98;8.50;;;11.00;99.90;;;;;;5015146;28;20184;-65
2021/12/30 05:42:22;;;;;;;12.98;9.52;;;10.90;99.90;;;;;;5015088;28;20436;-63
2021/12/30 05:44:54;;;;;;;13.82;9.15;;;10.90;99.90;;;;;;5014790;28;20026;-66
2021/12/30 05:47:20;;;;;;;14.07;8.77;;;10.90;99.90;;;;;;5015133;28;20446;-66
2021/12/30 05:49:46;;;;;;;14.20;9.18;;;10.90;99.90;;;;;;5014787;28;20136;-65
2021/12/30 05:52:12;;;;;;;15.40;9.23;;;10.90;99.90;;;;;;5013523;28;20076;-65
2021/12/30 05:54:39;;;;;;;15.88;9.43;;;10.90;99.90;;;;;;5015013;28;20022;-66
2021/12/30 05:57:05;;;;;;;15.00;9.70;;;10.90;99.90;;;;;;5014847;28;20034;-68
2021/12/30 05:59:30;;;;;;;14.98;9.27;;;10.90;99.90;;;;;;5013233;28;20067;-67
2021/12/30 06:01:56;;;;;;;18.48;9.35;;;10.90;99.90;;;;;;5014892;28;20040;-64
2021/12/30 06:04:22;;;;;;;15.65;9.70;;;10.90;99.90;;;;;;5014919;28;20026;-64
2021/12/30 06:06:48;;;;;;;17.52;9.00;;;10.90;99.90;;;;;;5014566;28;20045;-66
2021/12/30 06:09:14;;;;;;;15.35;9.02;;;10.90;99.90;;;;;;5014565;28;20025;-65
2021/12/30 06:11:39;;;;;;;15.02;9.32;;;10.90;99.90;;;;;;5014537;28;20064;-66
2021/12/30 06:14:05;;;;;;;18.77;9.73;;;10.80;99.90;;;;;;5014533;28;20057;-67
2021/12/30 06:16:33;;;;;;;20.20;10.88;;;10.80;99.90;;;;;;5014602;28;20026;-66
2021/12/30 06:18:59;;;;;;;14.85;9.93;;;10.70;99.90;;;;;;5014337;28;20029;-65
2021/12/30 06:21:25;;;;;;;14.00;9.70;;;10.70;99.90;;;;;;5014343;28;20030;-65
2021/12/30 06:23:52;;;;;;;14.23;9.10;;;10.70;99.90;;;;;;5014447;28;20026;-67
2021/12/30 06:26:18;;;;;;;19.67;10.02;;;10.60;99.90;;;;;;5014464;28;20028;-67
2021/12/30 06:28:43;;;;;;;15.98;9.80;;;10.50;99.90;;;;;;5014333;28;20424;-70
2021/12/30 06:31:09;;;;;;;17.98;9.77;;;10.50;99.90;;;;;;5014226;28;20120;-70
2021/12/30 06:33:35;;;;;;;13.02;9.50;;;10.50;99.90;;;;;;5014133;28;20029;-66
2021/12/30 06:36:00;;;;;;;19.75;10.13;;;10.60;99.90;;;;;;5012829;28;20467;-66
2021/12/30 06:38:26;;;;;;;16.42;9.93;;;10.50;99.90;;;;;;5014090;28;20048;-66
2021/12/30 06:40:52;;;;;;;24.50;10.90;;;10.50;99.90;;;;;;5014344;28;20022;-66
2021/12/30 06:43:18;;;;;;;15.27;9.63;;;10.60;99.90;;;;;;5014194;28;20030;-65
2021/12/30 06:45:44;;;;;;;16.15;9.35;;;10.60;99.90;;;;;;5013954;28;20028;-68
2021/12/30 06:48:14;;;;;;;16.75;8.65;;;10.60;99.90;;;;;;5013819;28;20399;-68
2021/12/30 06:50:41;;;;;;;17.40;9.40;;;10.50;99.90;;;;;;5013882;28;20042;-66
2021/12/30 06:53:06;;;;;;;15.98;8.90;;;10.60;99.90;;;;;;5013858;28;20021;-69
2021/12/30 06:55:32;;;;;;;15.57;8.57;;;10.60;99.90;;;;;;5013877;28;20100;-65
2021/12/30 06:57:58;;;;;;;18.10;8.80;;;10.70;99.90;;;;;;5013521;28;20040;-68
2021/12/30 07:00:24;;;;;;;13.40;7.90;;;10.70;99.90;;;;;;5013790;28;20041;-67
2021/12/30 07:02:50;;;;;;;15.25;7.93;;;10.70;99.90;;;;;;5013894;28;20025;-64
2021/12/30 07:05:15;;;;;;;12.05;7.80;;;10.80;99.90;;;;;;5013587;28;20026;-66
2021/12/30 07:07:43;;;;;;;14.93;7.53;;;10.90;99.90;;;;;;5013523;28;20045;-69
2021/12/30 07:10:10;;;;;;;13.15;8.15;;;10.90;99.90;;;;;;5013968;28;20018;-65
2021/12/30 07:12:37;;;;;;;12.88;7.90;;;11.00;99.90;;;;;;5013271;28;20064;-66
2021/12/30 07:15:08;;;;;;;10.60;6.95;;;11.10;99.90;;;;;;5013494;28;20021;-65
2021/12/30 07:17:34;;;;;;;16.35;8.10;;;11.10;99.90;;;;;;5012158;28;20098;-67
2021/12/30 07:20:01;;;;;;;16.65;7.68;;;11.30;99.90;;;;;;5012695;28;20030;-65
2021/12/30 07:22:27;;;;;;;13.98;7.80;;;11.30;99.80;;;;;;5013268;28;20034;-65
2021/12/30 07:24:52;;;;;;;15.05;8.10;;;11.40;99.80;;;;;;5013045;28;20049;-64
2021/12/30 07:27:18;;;;;;;14.20;7.25;;;11.50;99.40;;;;;;5012760;28;20049;-65
2021/12/30 07:29:44;;;;;;;18.65;6.93;;;11.60;99.40;;;;;;5012999;28;20503;-68
2021/12/30 07:32:09;;;;;;;13.38;8.05;;;11.60;99.10;;;;;;5012728;28;20028;-67
2021/12/30 07:34:35;;;;;;;17.52;8.02;;;11.70;99.20;;;;;;5012760;28;20493;-67
2021/12/30 07:37:01;;;;;;;16.40;7.60;;;11.70;99.00;;;;;;5013105;28;20026;-68
2021/12/30 07:39:26;;;;;;;12.90;7.13;;;11.70;99.00;;;;;;5011539;28;20044;-65
2021/12/30 07:41:52;;;;;;;15.40;8.30;;;11.70;98.90;;;;;;5012941;28;20040;-66
2021/12/30 07:44:18;;;;;;;15.25;7.68;;;11.70;99.00;;;;;;5012472;28;20025;-66
2021/12/30 07:46:43;;;;;;;15.23;8.07;;;11.70;98.80;;;;;;5012666;28;20460;-65
2021/12/30 07:49:09;;;;;;;18.95;7.75;;;11.70;98.80;;;;;;5012182;28;20546;-65
2021/12/30 07:51:35;;;;;;;22.80;8.45;;;11.70;98.80;;;;;;5012732;28;20490;-64
2021/12/30 07:54:01;;;;;;;13.93;7.68;;;11.80;98.80;;;;;;5012765;28;20060;-66
2021/12/30 07:56:26;;;;;;;14.27;8.10;;;11.80;98.70;;;;;;5012534;28;20026;-65
2021/12/30 07:58:52;;;;;;;17.38;7.63;;;11.80;98.70;;;;;;5012548;28;20530;-66
2021/12/30 08:01:18;;;;;;;13.90;7.63;;;11.70;98.70;;;;;;5012401;28;20515;-66
2021/12/30 08:03:44;;;;;;;15.35;8.05;;;11.80;98.90;;;;;;5012716;28;20033;-66
2021/12/30 08:06:09;;;;;;;12.88;7.53;;;11.90;99.10;;;;;;5011331;28;20387;-68
2021/12/30 08:08:35;;;;;;;15.23;7.93;;;11.90;99.00;;;;;;5012466;28;20034;-66
2021/12/30 08:11:01;;;;;;;13.40;8.07;;;12.00;99.00;;;;;;5012621;28;20406;-66
2021/12/30 08:13:27;;;;;;;15.23;7.57;;;12.00;99.00;;;;;;5012772;28;20026;-65
2021/12/30 08:15:53;;;;;;;15.52;7.47;;;12.10;99.00;;;;;;5012722;28;20115;-66
2021/12/30 08:18:19;;;;;;;24.48;8.05;;;12.10;99.10;;;;;;5012265;28;20030;-69
2021/12/30 08:20:45;;;;;;;16.85;7.22;;;12.20;99.20;;;;;;5012426;28;20034;-65
2021/12/30 08:23:11;;;;;;;16.80;7.20;;;12.20;99.20;;;;;;5012647;28;20042;-67
2021/12/30 08:25:37;;;;;;;23.85;7.55;;;12.20;99.30;;;;;;5012453;28;20110;-65
2021/12/30 08:28:03;;;;;;;12.85;7.00;;;12.20;99.40;;;;;;5012617;28;20040;-67
2021/12/30 08:30:29;;;;;;;12.07;7.65;;;12.20;99.40;;;;;;5015107;28;20029;-69
2021/12/30 08:32:55;;;;;;;10.88;6.88;;;12.20;99.30;;;;;;5013688;28;20106;-67
2021/12/30 08:35:22;;;;;;;13.52;6.65;;;12.30;99.40;;;;;;5012596;28;20025;-67
2021/12/30 08:37:49;;;;;;;12.00;6.90;;;12.30;99.20;;;;;;5014486;28;20022;-67
2021/12/30 08:40:16;;;;;;;11.68;6.72;;;12.30;99.20;;;;;;5016246;28;20029;-66
2021/12/30 08:42:43;;;;;;;11.40;6.90;;;12.30;99.20;;;;;;5016027;28;20026;-65
2021/12/30 08:45:10;;;;;;;11.02;7.32;;;12.40;99.10;;;;;;5015917;28;20030;-66
2021/12/30 08:47:36;;;;;;;20.55;7.70;;;12.50;99.00;;;;;;5015620;28;20052;-70
2021/12/30 08:50:06;;;;;;;13.73;7.00;;;12.60;99.00;;;;;;5015654;28;20050;-66
2021/12/30 08:52:33;;;;;;;15.82;7.32;;;12.70;98.90;;;;;;5015829;28;20379;-66
2021/12/30 08:55:00;;;;;;;14.98;7.53;;;12.70;98.80;;;;;;5015898;28;20022;-66
2021/12/30 08:57:26;;;;;;;14.82;7.60;;;12.80;98.70;;;;;;5015857;28;20026;-65
2021/12/30 08:59:51;;;;;;;16.52;6.90;;;12.90;98.70;;;;;;5015497;28;20065;-67
2021/12/30 09:02:17;;;;;;;14.57;7.82;;;13.00;98.50;;;;;;5015769;28;20022;-66
2021/12/30 09:04:46;;;;;;;15.43;7.03;;;13.10;98.60;;;;;;5015515;28;20030;-65
2021/12/30 09:07:13;;;;;;;14.93;6.95;;;13.20;98.30;;;;;;5016060;28;20305;-66
2021/12/30 09:09:41;;;;;;;12.30;6.40;;;13.20;98.10;;;;;;5015486;28;20034;-68
2021/12/30 09:12:08;;;;;;;15.90;6.88;;;13.30;97.90;;;;;;5015136;28;20018;-65
2021/12/30 09:14:34;;;;;;;11.25;6.80;;;13.40;98.00;;;;;;5013807;28;20030;-66
2021/12/30 09:16:59;;;;;;;15.15;6.15;;;13.40;97.80;;;;;;5015136;28;20025;-67
2021/12/30 09:19:25;;;;;;;15.80;7.10;;;13.40;97.60;;;;;;5014678;28;20049;-67
2021/12/30 09:21:51;;;;;;;14.05;6.95;;;13.50;97.80;;;;;;5013490;28;20018;-66
2021/12/30 09:24:16;;;;;;;12.13;7.18;;;13.50;97.50;;;;;;5014755;28;20467;-68
2021/12/30 09:26:42;;;;;;;12.90;7.07;;;13.50;97.60;;;;;;5014744;28;20110;-66
2021/12/30 09:29:11;;;;;;;20.50;8.02;;;13.60;97.60;;;;;;5014777;28;20105;-71
2021/12/30 09:31:49;;;;;;;17.95;7.28;;;13.60;97.70;;;;;;5014600;28;20022;-67
2021/12/30 09:34:16;;;;;;;14.25;6.80;;;13.60;97.60;;;;;;5014353;28;20040;-69
2021/12/30 09:36:44;;;;;;;16.55;7.65;;;13.60;97.40;;;;;;5013076;28;20026;-66
2021/12/30 09:39:11;;;;;;;18.95;7.82;;;13.70;97.60;;;;;;5014484;28;20096;-66
2021/12/30 09:41:44;;;;;;;17.40;9.50;;;13.70;97.40;;;;;;5014501;28;20081;-69
2021/12/30 09:44:11;;;;;;;20.00;11.82;;;13.80;97.20;;;;;;5014173;28;20444;-69
2021/12/30 09:46:38;;;;;;;15.98;9.15;;;13.80;97.10;;;;;;5013726;28;20115;-66
2021/12/30 09:49:06;;;;;;;17.05;8.20;;;13.90;97.10;;;;;;5014021;28;20054;-65
2021/12/30 09:51:33;;;;;;;11.63;7.85;;;14.00;97.00;;;;;;5014825;28;20081;-65
2021/12/30 09:54:00;;;;;;;19.42;8.60;;;14.00;96.50;;;;;;5014516;28;20521;-66
2021/12/30 09:56:27;;;;;;;16.13;9.07;;;14.10;96.50;;;;;;5014225;28;20026;-65
2021/12/30 09:58:53;;;;;;;31.58;13.00;;;14.20;96.40;;;;;;5014153;28;20034;-66
2021/12/30 10:01:19;;;;;;;18.20;8.93;;;14.30;96.30;;;;;;5014411;28;20506;-70
2021/12/30 10:03:46;;;;;;;14.55;8.55;;;14.40;96.00;;;;;;5013234;28;20029;-65
2021/12/30 10:06:17;;;;;;;16.90;8.80;;;14.50;95.40;;;;;;5013907;28;20025;-70
2021/12/30 10:09:09;;;;;;;14.82;7.85;;;14.60;95.20;;;;;;5014034;28;20022;-69
2021/12/30 10:11:53;;;;;;;15.98;8.52;;;14.70;95.30;;;;;;5014088;28;20030;-68
2021/12/30 10:14:34;;;;;;;12.98;7.68;;;14.80;95.10;;;;;;5012257;28;20032;-66
2021/12/30 10:17:25;;;;;;;13.48;7.72;;;14.90;94.70;;;;;;5013872;28;20036;-67
2021/12/30 10:19:55;;;;;;;14.70;7.68;;;15.10;94.40;;;;;;5013692;28;20056;-66
2021/12/30 10:22:23;;;;;;;16.55;8.00;;;15.20;94.10;;;;;;5013695;28;20092;-67
2021/12/30 10:24:50;;;;;;;15.35;7.28;;;15.20;93.90;;;;;;5013625;28;20379;-73
2021/12/30 10:27:28;;;;;;;14.30;7.80;;;15.40;93.80;;;;;;5013066;28;20026;-75
2021/12/30 10:29:54;;;;;;;13.13;7.50;;;15.40;93.50;;;;;;5013248;28;20022;-67
2021/12/30 10:32:28;;;;;;;58.15;12.35;;;15.40;93.60;;;;;;5013728;28;20137;-70
2021/12/30 10:35:13;;;;;;;17.88;7.88;;;15.50;93.80;;;;;;5013583;28;20375;-70
2021/12/30 10:37:45;;;;;;;16.50;8.27;;;15.40;93.40;;;;;;4995770;28;20100;-66
2021/12/30 10:40:29;;;;;;;17.95;8.43;;;15.40;93.50;;;;;;5013193;28;20471;-72
2021/12/30 10:43:37;;;;;;;15.45;8.02;;;15.60;93.60;;;;;;5012032;28;20164;-69
2021/12/30 10:46:15;;;;;;;14.30;7.47;;;15.70;93.40;;;;;;5013513;28;20034;-73
2021/12/30 10:48:54;;;;;;;15.05;7.53;;;15.80;93.40;;;;;;5012857;28;20054;-68
2021/12/30 10:51:28;;;;;;;18.30;7.45;;;15.80;92.90;;;;;;5013023;28;20384;-70
2021/12/30 10:53:56;;;;;;;14.45;7.00;;;15.90;92.60;;;;;;5013580;28;20021;-68
2021/12/30 10:56:31;;;;;;;13.38;7.63;;;15.90;92.30;;;;;;5013350;28;20014;-70
2021/12/30 10:59:15;;;;;;;23.77;7.63;;;16.00;92.20;;;;;;5012585;28;20038;-68
2021/12/30 11:01:57;;;;;;;13.38;7.78;;;16.00;92.40;;;;;;5011944;28;20065;-68
2021/12/30 11:04:32;;;;;;;14.02;6.50;;;16.00;92.10;;;;;;5013490;28;20301;-67
2021/12/30 11:06:58;;;;;;;15.65;7.15;;;16.10;92.20;;;;;;5013076;28;20052;-69
2021/12/30 11:09:26;;;;;;;13.23;6.80;;;16.10;92.00;;;;;;5013117;28;20029;-68
2021/12/30 11:11:59;;;;;;;11.25;4.70;;;16.10;91.50;;;;;;4995788;28;20029;-66
2021/12/30 11:14:35;;;;;;;11.70;5.38;;;16.20;91.20;;;;;;5013388;28;20472;-67
2021/12/30 11:17:18;;;;;;;12.73;6.15;;;16.20;91.00;;;;;;5013190;28;20026;-68
2021/12/30 11:19:50;;;;;;;13.98;6.50;;;16.20;90.80;;;;;;5011448;28;20156;-67
2021/12/30 11:22:24;;;;;;;14.45;5.80;;;16.30;90.80;;;;;;5012783;28;20364;-66
2021/12/30 11:24:54;;;;;;;15.38;6.53;;;16.40;90.50;;;;;;5013372;28;20049;-67
2021/12/30 11:27:22;;;;;;;11.93;6.85;;;16.50;90.80;;;;;;5011470;28;20033;-67
2021/12/30 11:29:54;;;;;;;13.70;5.88;;;16.60;90.90;;;;;;5013365;28;20080;-68
2021/12/30 11:32:27;;;;;;;13.98;5.90;;;16.70;90.50;;;;;;5011730;28;20065;-67
2021/12/30 11:34:53;;;;;;;12.73;6.18;;;16.80;90.40;;;;;;5013284;28;20030;-67
2021/12/30 11:37:20;;;;;;;10.65;5.93;;;16.90;90.40;;;;;;5013006;28;20627;-66
2021/12/30 11:39:49;;;;;;;15.93;6.75;;;16.90;89.40;;;;;;5012750;28;20041;-64
2021/12/30 11:42:26;;;;;;;12.90;6.63;;;17.00;89.10;;;;;;5012763;28;20426;-65
2021/12/30 11:45:00;;;;;;;9.75;5.53;;;17.00;88.40;;;;;;5017862;28;20096;-68
2021/12/30 11:47:35;;;;;;;8.70;5.30;;;17.10;88.30;;;;;;5017255;28;20061;-68
2021/12/30 11:50:14;;;;;;;10.80;5.82;;;17.00;87.90;;;;;;5014073;28;20077;-66
2021/12/30 11:52:47;;;;;;;14.27;6.43;;;17.00;87.70;;;;;;5012858;28;20033;-68
2021/12/30 11:56:17;;;;;;;17.50;7.20;;;17.00;87.80;;;;;;5013162;28;20507;-68
2021/12/30 11:58:48;;;;;;;13.32;7.10;;;17.00;88.90;;;;;;4990688;28;20034;-67
2021/12/30 12:01:14;;;;;;;14.57;7.35;;;17.00;89.00;;;;;;4991001;28;20026;-71
2021/12/30 12:03:42;;;;;;;16.65;8.15;;;16.90;89.50;;;;;;5005809;28;20041;-66
2021/12/30 12:06:27;;;;;;;16.73;8.20;;;16.90;89.70;;;;;;5011256;28;20023;-66
2021/12/30 12:08:54;;;;;;;14.45;7.15;;;16.80;89.20;;;;;;5012949;28;20419;-66
2021/12/30 12:11:27;;;;;;;14.25;7.45;;;16.80;89.10;;;;;;5015861;28;20034;-66
2021/12/30 12:13:55;;;;;;;16.77;8.13;;;16.70;89.20;;;;;;5016563;28;20022;-65
2021/12/30 12:16:43;;;;;;;13.82;7.85;;;16.60;89.40;;;;;;5016731;28;20033;-67
2021/12/30 12:19:10;;;;;;;17.70;7.20;;;16.60;90.00;;;;;;5016706;28;20038;-66
2021/12/30 12:21:38;;;;;;;12.27;7.22;;;16.60;90.00;;;;;;5016745;28;20423;-66
2021/12/30 12:24:28;;;;;;;15.63;7.28;;;16.70;89.90;;;;;;5016653;28;20365;-73
2021/12/30 12:26:57;;;;;;;14.65;7.70;;;16.80;89.30;;;;;;5016333;28;20034;-66
2021/12/30 12:29:42;;;;;;;12.35;7.18;;;16.90;88.90;;;;;;5016321;28;20030;-67
2021/12/30 12:32:11;;;;;;;15.27;6.90;;;17.00;89.20;;;;;;5016938;28;20506;-72
2021/12/30 12:34:53;;;;;;;16.17;7.57;;;17.10;88.40;;;;;;5016806;28;20487;-66
2021/12/30 12:37:37;;;;;;;13.98;7.15;;;17.20;88.80;;;;;;5017068;28;20025;-69
2021/12/30 12:40:02;;;;;;;17.83;7.70;;;17.30;88.30;;;;;;5017176;28;20087;-71
2021/12/30 12:43:03;;;;;;;12.68;6.30;;;17.30;87.10;;;;;;5016570;28;20108;-70